Time;durP1;ratioP1;P1;durP2;ratioP2;P2;SDS_P1;SDS_P2;PMS_P1;PMS_P2;Temp;Humidity;BMP_temperature;BMP_pressure;BME280_temperature;BME280_humidity;BME280_pressure;Samples;Min_cycle;Max_cycle;Signal;HPM_P1;HPM_P2
2023/01/12 00:01:23;;;;;;;10.93;10.43;;;;;;;-143.83;100.00;62900.06;5015566;28;20045;-68
2023/01/12 00:03:49;;;;;;;10.93;10.35;;;;;;;-143.83;100.00;62900.06;5012421;28;20084;-69
2023/01/12 00:06:15;;;;;;;11.00;10.50;;;;;;;-143.83;100.00;62900.06;5014769;28;20025;-69
2023/01/12 00:08:41;;;;;;;10.60;10.10;;;;;;;-143.83;100.00;62900.06;5013214;28;20446;-69
2023/01/12 00:11:07;;;;;;;11.30;10.70;;;;;;;-143.83;100.00;62900.06;5015379;28;20025;-69
2023/01/12 00:13:32;;;;;;;10.57;10.07;;;;;;;-143.83;100.00;62900.06;5015551;28;20030;-69
2023/01/12 00:17:02;;;;;;;10.88;10.38;;;;;;;-143.83;100.00;62900.06;5012625;28;20064;-69
2023/01/12 00:18:56;;;;;;;10.60;10.10;;;;;;;-143.83;100.00;62900.06;4993008;28;20299;-69
2023/01/12 00:21:22;;;;;;;10.65;10.15;;;;;;;-143.83;100.00;62900.06;5008877;28;20057;-69
2023/01/12 00:23:47;;;;;;;11.18;10.60;;;;;;;-143.83;100.00;62900.06;5011217;28;20093;-70
2023/01/12 00:26:13;;;;;;;11.38;10.77;;;;;;;-143.83;100.00;62900.06;5014006;28;20029;-69
2023/01/12 00:28:38;;;;;;;10.98;10.48;;;;;;;-143.83;100.00;62900.06;5014881;28;20021;-69
2023/01/12 00:31:06;;;;;;;11.65;11.05;;;;;;;-143.83;100.00;62900.06;5015403;28;20424;-69
2023/01/12 00:33:36;;;;;;;11.15;10.57;;;;;;;-143.83;100.00;62900.06;5017114;28;20034;-69
2023/01/12 00:36:03;;;;;;;11.63;11.02;;;;;;;-143.83;100.00;62900.06;5014531;28;20543;-69
2023/01/12 00:38:29;;;;;;;11.50;10.90;;;;;;;-143.83;100.00;62900.06;5017494;28;20038;-70
2023/01/12 00:40:54;;;;;;;11.18;10.57;;;;;;;-143.83;100.00;62900.06;5013631;28;20121;-69
2023/01/12 00:46:04;;;;;;;11.80;11.20;;;;;;;-143.83;100.00;62900.06;5012444;28;20133;-69
2023/01/12 00:48:29;;;;;;;10.90;10.40;;;;;;;-143.83;100.00;62900.06;5015660;28;20124;-69
2023/01/12 00:50:55;;;;;;;10.52;10.02;;;;;;;-143.83;100.00;62900.06;5014999;28;20026;-69
2023/01/12 00:53:21;;;;;;;11.57;10.98;;;;;;;-143.83;100.00;62900.06;5013584;28;20037;-70
2023/01/12 00:55:46;;;;;;;10.73;10.23;;;;;;;-143.83;100.00;62900.06;5014652;28;20044;-70
2023/01/12 00:58:12;;;;;;;11.40;10.80;;;;;;;-143.83;100.00;62900.06;5025051;28;20031;-69
2023/01/12 01:00:37;;;;;;;11.00;10.50;;;;;;;-143.83;100.00;62900.06;5012822;28;20046;-69
2023/01/12 01:03:03;;;;;;;11.38;10.77;;;;;;;-143.83;100.00;62900.06;5014709;28;20021;-69
2023/01/12 01:05:29;;;;;;;10.90;10.40;;;;;;;-143.83;100.00;62900.06;5014184;28;20469;-70
2023/01/12 01:07:54;;;;;;;10.40;9.90;;;;;;;-143.83;100.00;62900.06;5014404;28;20037;-69
2023/01/12 01:10:20;;;;;;;11.15;10.57;;;;;;;-143.83;100.00;62900.06;5013694;28;20108;-67
2023/01/12 01:12:46;;;;;;;11.38;10.77;;;;;;;-143.83;100.00;62900.06;5014510;28;20113;-69
2023/01/12 01:15:12;;;;;;;11.15;10.55;;;;;;;-143.83;100.00;62900.06;4996502;28;20034;-68
2023/01/12 01:17:37;;;;;;;11.32;10.73;;;;;;;-143.83;100.00;62900.06;5014347;28;20064;-68
2023/01/12 01:20:03;;;;;;;11.40;10.80;;;;;;;-143.83;100.00;62900.06;5014221;28;20022;-69
2023/01/12 01:22:29;;;;;;;10.52;10.02;;;;;;;-143.83;100.00;62900.06;5015190;28;20497;-68
2023/01/12 01:24:54;;;;;;;11.25;10.65;;;;;;;-143.83;100.00;62900.06;5011174;28;20056;-69
2023/01/12 01:27:20;;;;;;;10.20;9.70;;;;;;;-143.83;100.00;62900.06;5014259;28;20026;-68
2023/01/12 01:29:45;;;;;;;11.40;10.80;;;;;;;-143.83;100.00;62900.06;5014132;28;20025;-68
2023/01/12 01:32:11;;;;;;;10.68;10.18;;;;;;;-143.83;100.00;62900.06;5013053;28;20489;-68
2023/01/12 01:34:36;;;;;;;10.85;10.35;;;;;;;-143.83;100.00;62900.06;5013786;28;20044;-69
2023/01/12 01:37:02;;;;;;;10.68;10.18;;;;;;;-143.83;100.00;62900.06;5013783;28;20017;-70
2023/01/12 01:39:27;;;;;;;10.90;10.40;;;;;;;-143.83;100.00;62900.06;5009542;28;20038;-69
2023/01/12 01:41:53;;;;;;;10.32;9.82;;;;;;;-143.83;100.00;62900.06;5013925;28;20026;-70
2023/01/12 01:44:30;;;;;;;10.50;10.00;;;;;;;-143.83;100.00;62900.06;5013865;28;20148;-69
2023/01/12 01:46:56;;;;;;;11.40;10.80;;;;;;;-143.83;100.00;62900.06;5013303;28;20037;-70
2023/01/12 01:49:36;;;;;;;10.93;10.35;;;;;;;-143.83;100.00;62900.06;5013658;28;20022;-69
2023/01/12 01:52:06;;;;;;;11.93;11.25;;;;;;;-143.83;100.00;62900.06;5012202;28;20052;-69
2023/01/12 01:54:38;;;;;;;10.57;10.07;;;;;;;-143.83;100.00;62900.06;5013911;28;20083;-69
2023/01/12 01:57:06;;;;;;;10.50;10.00;;;;;;;-143.83;100.00;62900.06;5012403;28;20049;-69
2023/01/12 01:59:35;;;;;;;11.13;10.52;;;;;;;-143.83;100.00;62900.06;5013489;28;20426;-70
2023/01/12 02:02:01;;;;;;;11.10;10.50;;;;;;;-143.83;100.00;62900.06;5013196;28;20050;-69
2023/01/12 02:04:27;;;;;;;11.38;10.77;;;;;;;-143.83;100.00;62900.06;5011524;28;20037;-69
2023/01/12 02:06:55;;;;;;;11.13;10.52;;;;;;;-143.83;100.00;62900.06;5011851;28;20405;-69
2023/01/12 02:09:24;;;;;;;11.00;10.48;;;;;;;-143.83;100.00;62900.06;5013283;28;20105;-69
2023/01/12 02:17:46;;;;;;;10.60;10.10;;;;;;;-143.83;100.00;62900.06;5012041;28;20024;-69
2023/01/12 02:20:25;;;;;;;11.55;10.95;;;;;;;-143.83;100.00;62900.06;5011035;28;20045;-69
2023/01/12 02:23:19;;;;;;;11.32;10.73;;;;;;;-143.83;100.00;62900.06;5027308;28;20496;-69
2023/01/12 02:25:59;;;;;;;10.38;9.88;;;;;;;-143.83;100.00;62900.06;5013232;28;20091;-69
2023/01/12 02:28:55;;;;;;;11.27;10.68;;;;;;;-143.83;100.00;62900.06;5010229;28;20029;-68
2023/01/12 02:31:55;;;;;;;10.82;10.32;;;;;;;-143.83;100.00;62900.06;5028811;28;20056;-69
2023/01/12 02:34:58;;;;;;;10.85;10.35;;;;;;;-143.83;100.00;62900.06;5011668;28;20022;-70
2023/01/12 02:37:35;;;;;;;10.70;10.20;;;;;;;-143.83;100.00;62900.06;5007946;28;20107;-69
2023/01/12 02:40:34;;;;;;;11.05;10.45;;;;;;;-143.83;100.00;62900.06;5010752;28;20026;-70
2023/01/12 02:43:13;;;;;;;11.30;10.70;;;;;;;-143.83;100.00;62900.06;5010228;28;20024;-68
2023/01/12 02:45:57;;;;;;;10.60;10.10;;;;;;;-143.83;100.00;62900.06;5011036;28;20017;-70
2023/01/12 02:48:46;;;;;;;11.45;10.85;;;;;;;-143.83;100.00;62900.06;5012611;28;20029;-70
2023/01/12 02:51:36;;;;;;;11.07;10.50;;;;;;;-143.83;100.00;62900.06;5010729;28;20699;-69
2023/01/12 02:54:05;;;;;;;11.30;10.70;;;;;;;-143.83;100.00;62900.06;5012350;28;20029;-69
2023/01/12 02:56:43;;;;;;;11.00;10.40;;;;;;;-143.83;100.00;62900.06;5010604;28;20496;-69
2023/01/12 02:59:29;;;;;;;11.00;10.43;;;;;;;-143.83;100.00;62900.06;5011745;28;20036;-69
2023/01/12 03:02:07;;;;;;;10.73;10.23;;;;;;;-143.83;100.00;62900.06;5011103;28;20411;-68
2023/01/12 03:04:34;;;;;;;10.77;10.27;;;;;;;-143.83;100.00;62900.06;5011778;28;20049;-68
2023/01/12 03:06:59;;;;;;;10.93;10.43;;;;;;;-143.83;100.00;62900.06;5012149;28;20493;-68
2023/01/12 03:09:40;;;;;;;10.70;10.20;;;;;;;-143.83;100.00;62900.06;5010940;28;20030;-68
2023/01/12 03:12:11;;;;;;;12.07;11.38;;;;;;;-143.83;100.00;62900.06;5010234;28;20101;-69
2023/01/12 03:14:41;;;;;;;10.90;10.40;;;;;;;-143.83;100.00;62900.06;5043631;28;20041;-68
2023/01/12 03:17:14;;;;;;;11.18;10.57;;;;;;;-143.83;100.00;62900.06;5008321;28;20029;-68
2023/01/12 03:19:42;;;;;;;11.30;10.70;;;;;;;-143.83;100.00;62900.06;5006886;28;20029;-69
2023/01/12 03:22:12;;;;;;;10.95;10.35;;;;;;;-143.83;100.00;62900.06;5012698;28;20049;-69
2023/01/12 03:24:43;;;;;;;10.57;10.07;;;;;;;-143.83;100.00;62900.06;5011994;28;20021;-70
2023/01/12 03:27:20;;;;;;;11.10;10.50;;;;;;;-143.83;100.00;62900.06;5011955;28;20044;-69
2023/01/12 03:29:55;;;;;;;11.10;10.50;;;;;;;-143.83;100.00;62900.06;5010275;28;20068;-68
2023/01/12 03:32:21;;;;;;;10.48;9.98;;;;;;;-143.83;100.00;62900.06;5011793;28;20531;-69
2023/01/12 03:34:47;;;;;;;10.30;9.80;;;;;;;-143.83;100.00;62900.06;5012132;28;20055;-69
2023/01/12 03:37:26;;;;;;;10.85;10.27;;;;;;;-143.83;100.00;62900.06;5012225;28;20022;-70
2023/01/12 03:40:06;;;;;;;10.75;10.25;;;;;;;-143.83;100.00;62900.06;5009398;28;20496;-69
2023/01/12 03:42:54;;;;;;;10.20;9.70;;;;;;;-143.83;100.00;62900.06;5011501;28;20545;-69
2023/01/12 03:45:33;;;;;;;10.30;9.80;;;;;;;-143.83;100.00;62900.06;5010369;28;20473;-68
2023/01/12 03:48:09;;;;;;;10.45;9.95;;;;;;;-143.83;100.00;62900.06;5009068;28;20026;-69
2023/01/12 03:50:42;;;;;;;11.35;10.75;;;;;;;-143.83;100.00;62900.06;5023592;28;20501;-68
2023/01/12 03:53:11;;;;;;;11.05;10.45;;;;;;;-143.83;100.00;62900.06;5011429;28;20120;-69
2023/01/12 03:55:37;;;;;;;10.05;9.57;;;;;;;-143.83;100.00;62900.06;5012335;28;20033;-68
2023/01/12 03:58:03;;;;;;;10.80;10.30;;;;;;;-143.83;100.00;62900.06;5010843;28;20057;-69
2023/01/12 04:00:29;;;;;;;10.75;10.20;;;;;;;-143.83;100.00;62900.06;5010188;28;20066;-69
2023/01/12 04:03:24;;;;;;;10.90;10.30;;;;;;;-143.83;100.00;62900.06;5011742;28;20442;-70
2023/01/12 04:05:50;;;;;;;11.30;10.70;;;;;;;-143.83;100.00;62900.06;4998198;28;20100;-70
2023/01/12 04:08:16;;;;;;;11.05;10.45;;;;;;;-143.83;100.00;62900.06;5039535;28;20033;-71
2023/01/12 04:10:42;;;;;;;10.95;10.43;;;;;;;-143.83;100.00;62900.06;5010217;28;20378;-70
2023/01/12 04:13:07;;;;;;;11.02;10.45;;;;;;;-143.83;100.00;62900.06;5010288;28;20041;-69
2023/01/12 04:15:36;;;;;;;11.00;10.48;;;;;;;-143.83;100.00;62900.06;5011662;28;20477;-69
2023/01/12 04:18:03;;;;;;;11.07;10.48;;;;;;;-143.83;100.00;62900.06;5011063;28;20066;-70
2023/01/12 04:20:28;;;;;;;10.15;9.65;;;;;;;-143.83;100.00;62900.06;5010142;28;20030;-70
2023/01/12 04:22:54;;;;;;;10.48;9.98;;;;;;;-143.83;100.00;62900.06;5011328;28;20382;-70
2023/01/12 04:25:21;;;;;;;10.30;9.80;;;;;;;-143.83;100.00;62900.06;5010226;28;20137;-69
2023/01/12 04:27:49;;;;;;;10.90;10.30;;;;;;;-143.83;100.00;62900.06;5008554;28;20033;-69
2023/01/12 04:30:16;;;;;;;10.73;10.23;;;;;;;-143.83;100.00;62900.06;5010340;28;20477;-69
2023/01/12 04:32:43;;;;;;;11.45;10.82;;;;;;;-143.83;100.00;62900.06;5009512;28;20104;-69
2023/01/12 04:35:11;;;;;;;10.18;9.68;;;;;;;-143.83;100.00;62900.06;5011451;28;20069;-69
2023/01/12 04:37:36;;;;;;;10.32;9.82;;;;;;;-143.83;100.00;62900.06;5009325;28;20036;-70
2023/01/12 04:40:02;;;;;;;10.75;10.15;;;;;;;-143.83;100.00;62900.06;5012480;28;20034;-70
2023/01/12 04:45:12;;;;;;;10.73;10.13;;;;;;;-143.83;100.00;62900.06;5015093;28;20397;-70
2023/01/12 04:47:38;;;;;;;10.30;9.80;;;;;;;-143.83;100.00;62900.06;5008365;28;20025;-70
2023/01/12 04:50:04;;;;;;;10.82;10.25;;;;;;;-143.83;100.00;62900.06;5012451;28;20025;-69
2023/01/12 04:52:29;;;;;;;10.43;9.93;;;;;;;-143.83;100.00;62900.06;5014823;28;20108;-70
2023/01/12 04:54:55;;;;;;;11.30;10.70;;;;;;;-143.83;100.00;62900.06;5011148;28;20498;-69
2023/01/12 04:57:20;;;;;;;10.43;9.93;;;;;;;-143.83;100.00;62900.06;5014509;28;20049;-69
2023/01/12 04:59:46;;;;;;;10.88;10.27;;;;;;;-143.83;100.00;62900.06;5013419;28;20025;-70
2023/01/12 05:02:11;;;;;;;10.98;10.38;;;;;;;-143.83;100.00;62900.06;5013958;28;20037;-70
2023/01/12 05:04:37;;;;;;;10.40;9.90;;;;;;;-143.83;100.00;62900.06;5014312;28;20449;-69
2023/01/12 05:07:02;;;;;;;11.52;10.88;;;;;;;-143.83;100.00;62900.06;5008710;28;20485;-69
2023/01/12 05:12:12;;;;;;;10.90;10.30;;;;;;;-143.83;100.00;62900.06;5012273;28;20547;-69
2023/01/12 05:14:37;;;;;;;11.63;10.98;;;;;;;-143.83;100.00;62900.06;5012292;28;20042;-69
2023/01/12 05:17:03;;;;;;;12.70;11.90;;;;;;;-143.83;100.00;62900.06;5012850;28;20029;-69
2023/01/12 05:19:29;;;;;;;11.10;10.50;;;;;;;-143.83;100.00;62900.06;5013228;28;20021;-69
2023/01/12 05:21:54;;;;;;;13.43;12.52;;;;;;;-143.83;100.00;62900.06;5010741;28;20030;-67
2023/01/12 05:24:20;;;;;;;10.63;10.10;;;;;;;-143.83;100.00;62900.06;5010158;28;20097;-67
2023/01/12 05:26:45;;;;;;;10.95;10.35;;;;;;;-143.83;100.00;62900.06;5011199;28;20125;-67
2023/01/12 05:29:11;;;;;;;10.68;10.18;;;;;;;-143.83;100.00;62900.06;5009027;28;20474;-67
2023/01/12 05:31:37;;;;;;;12.35;11.55;;;;;;;-143.83;100.00;62900.06;5008925;28;20026;-68
2023/01/12 05:34:02;;;;;;;10.48;9.95;;;;;;;-143.83;100.00;62900.06;5013636;28;20044;-67
2023/01/12 05:36:28;;;;;;;11.10;10.50;;;;;;;-143.83;100.00;62900.06;5013536;28;20037;-66
2023/01/12 05:38:54;;;;;;;11.27;10.65;;;;;;;-143.83;100.00;62900.06;5011079;28;20659;-66
2023/01/12 05:41:22;;;;;;;10.93;10.32;;;;;;;-143.83;100.00;62900.06;5026143;28;20064;-68
2023/01/12 05:43:51;;;;;;;10.90;10.30;;;;;;;-143.83;100.00;62900.06;5010880;28;20022;-69
2023/01/12 05:46:32;;;;;;;10.23;9.73;;;;;;;-143.83;100.00;62900.06;5012973;28;20478;-68
2023/01/12 05:48:58;;;;;;;10.90;10.30;;;;;;;-143.83;100.00;62900.06;5015817;28;20081;-68
2023/01/12 05:51:25;;;;;;;11.18;10.57;;;;;;;-143.83;100.00;62900.06;5008575;28;20474;-68
2023/01/12 05:53:51;;;;;;;10.73;10.13;;;;;;;-143.83;100.00;62900.06;5014181;28;20021;-68
2023/01/12 05:56:24;;;;;;;10.52;10.00;;;;;;;-143.83;100.00;62900.06;5013381;28;20548;-69
2023/01/12 05:58:55;;;;;;;11.43;10.73;;;;;;;-143.83;100.00;62900.06;5011356;28;20117;-68
2023/01/12 06:01:22;;;;;;;10.27;9.77;;;;;;;-143.83;100.00;62900.06;5010876;28;20046;-68
2023/01/12 06:03:51;;;;;;;10.07;9.57;;;;;;;-143.83;100.00;62900.06;5013043;28;20034;-67
2023/01/12 06:06:19;;;;;;;11.00;10.40;;;;;;;-143.83;100.00;62900.06;5024772;28;20033;-67
2023/01/12 06:08:45;;;;;;;10.35;9.82;;;;;;;-143.83;100.00;62900.06;5012994;28;20029;-68
2023/01/12 06:13:55;;;;;;;10.07;9.57;;;;;;;-143.83;100.00;62900.06;5013165;28;20041;-67
2023/01/12 06:13:57;;;;;;;10.45;9.95;;;;;;;-143.83;100.00;62900.06;5013225;28;20025;-67
2023/01/12 06:16:23;;;;;;;10.30;9.80;;;;;;;-143.83;100.00;62900.06;5012427;28;20124;-68
2023/01/12 06:18:48;;;;;;;9.93;9.43;;;;;;;-143.83;100.00;62900.06;5012995;28;20026;-68
2023/01/12 06:21:14;;;;;;;11.43;10.73;;;;;;;-143.83;100.00;62900.06;5011141;28;20029;-67
2023/01/12 06:23:39;;;;;;;10.52;10.02;;;;;;;-143.83;100.00;62900.06;5011628;28;20025;-67
2023/01/12 06:26:07;;;;;;;10.15;9.65;;;;;;;-143.83;100.00;62900.06;5012974;28;20477;-67
2023/01/12 06:28:33;;;;;;;10.93;10.32;;;;;;;-143.83;100.00;62900.06;5013487;28;20022;-68
2023/01/12 06:31:04;;;;;;;11.15;10.55;;;;;;;-143.83;100.00;62900.06;5011471;28;20022;-67
2023/01/12 06:33:29;;;;;;;11.07;10.48;;;;;;;-143.83;100.00;62900.06;5009280;28;20493;-66
2023/01/12 06:35:55;;;;;;;11.77;11.07;;;;;;;-143.83;100.00;62900.06;5013247;28;20076;-67
2023/01/12 06:38:23;;;;;;;11.02;10.43;;;;;;;-143.83;100.00;62900.06;5012552;28;20057;-67
2023/01/12 06:40:49;;;;;;;10.77;10.18;;;;;;;-143.83;100.00;62900.06;5011408;28;20096;-67
2023/01/12 06:43:15;;;;;;;10.98;10.38;;;;;;;-143.83;100.00;62900.06;5012687;28;20450;-66
2023/01/12 06:45:41;;;;;;;10.43;9.90;;;;;;;-143.83;100.00;62900.06;5005855;28;20033;-69
2023/01/12 06:48:06;;;;;;;10.75;10.15;;;;;;;-143.83;100.00;62900.06;5001873;28;20022;-67
2023/01/12 06:50:33;;;;;;;11.88;11.18;;;;;;;-143.83;100.00;62900.06;5009544;28;20453;-68
2023/01/12 06:52:59;;;;;;;13.05;12.25;;;;;;;-143.83;100.00;62900.06;5009020;28;20037;-67
2023/01/12 06:55:25;;;;;;;11.18;10.57;;;;;;;-143.83;100.00;62900.06;5008075;28;20092;-68
2023/01/12 06:57:50;;;;;;;10.70;10.10;;;;;;;-143.83;100.00;62900.06;5008740;28;20025;-69
2023/01/12 07:00:16;;;;;;;12.23;11.45;;;;;;;-143.83;100.00;62900.06;5008653;28;20069;-69
2023/01/12 07:02:41;;;;;;;11.02;10.43;;;;;;;-143.83;100.00;62900.06;5004751;28;20053;-69
2023/01/12 07:05:08;;;;;;;11.15;10.55;;;;;;;-143.83;100.00;62900.06;5012680;28;20120;-69
2023/01/12 07:07:36;;;;;;;11.07;10.48;;;;;;;-143.83;100.00;62900.06;5011401;28;20061;-69
2023/01/12 07:10:02;;;;;;;11.43;10.82;;;;;;;-143.83;100.00;62900.06;5000372;28;20448;-69
2023/01/12 07:12:27;;;;;;;10.57;10.07;;;;;;;-143.83;100.00;62900.06;5010533;28;20041;-69
2023/01/12 07:14:55;;;;;;;10.98;10.38;;;;;;;-143.83;100.00;62900.06;5007891;28;20030;-69
2023/01/12 07:17:20;;;;;;;10.75;10.18;;;;;;;-143.83;100.00;62900.06;5039685;28;20033;-68
2023/01/12 07:19:46;;;;;;;16.35;15.05;;;;;;;-143.83;100.00;62900.06;4994973;28;20025;-72
2023/01/12 07:22:11;;;;;;;11.60;10.90;;;;;;;-143.83;100.00;62900.06;5005100;28;20029;-72
2023/01/12 07:24:36;;;;;;;11.75;11.05;;;;;;;-143.83;100.00;62900.06;5011215;28;20557;-70
2023/01/12 07:27:02;;;;;;;11.57;10.88;;;;;;;-143.83;100.00;62900.06;5008289;28;20018;-69
2023/01/12 07:29:28;;;;;;;11.23;10.63;;;;;;;-143.83;100.00;62900.06;5011121;28;20029;-69
2023/01/12 07:31:53;;;;;;;10.85;10.25;;;;;;;-143.83;100.00;62900.06;5009221;28;20038;-71
2023/01/12 07:34:19;;;;;;;11.10;10.50;;;;;;;-143.83;100.00;62900.06;5009443;28;20025;-71
2023/01/12 07:36:47;;;;;;;12.05;11.35;;;;;;;-143.83;100.00;62900.06;5008886;28;20075;-66
2023/01/12 07:39:14;;;;;;;11.07;10.48;;;;;;;-143.83;100.00;62900.06;5009309;28;20436;-70
2023/01/12 07:44:23;;;;;;;11.60;10.90;;;;;;;-143.83;100.00;62900.06;5005917;28;20044;-68
2023/01/12 07:46:49;;;;;;;10.93;10.32;;;;;;;-143.83;100.00;62900.06;5009976;28;20046;-68
2023/01/12 07:49:15;;;;;;;10.75;10.25;;;;;;;-143.83;100.00;62900.06;5010819;28;20069;-73
2023/01/12 07:51:40;;;;;;;10.57;10.07;;;;;;;-143.83;100.00;62900.06;5009434;28;20026;-71
2023/01/12 07:54:06;;;;;;;11.88;11.18;;;;;;;-143.83;100.00;62900.06;5010271;28;20029;-71
2023/01/12 07:56:31;;;;;;;10.85;10.25;;;;;;;-143.83;100.00;62900.06;5010163;28;20095;-72
2023/01/12 07:58:57;;;;;;;10.57;10.07;;;;;;;-143.83;100.00;62900.06;5008647;28;20032;-72
2023/01/12 08:01:22;;;;;;;10.02;9.52;;;;;;;-143.83;100.00;62900.06;5006930;28;20050;-71
2023/01/12 08:03:48;;;;;;;10.55;9.98;;;;;;;-143.83;100.00;62900.06;5010880;28;20101;-71
2023/01/12 08:06:14;;;;;;;10.93;10.32;;;;;;;-143.83;100.00;62900.06;5009463;28;20045;-72
2023/01/12 08:08:40;;;;;;;11.65;11.00;;;;;;;-143.83;100.00;62900.06;5013392;28;20129;-73
2023/01/12 08:11:08;;;;;;;11.25;10.65;;;;;;;-143.83;100.00;62900.06;5006481;28;20030;-71
2023/01/12 08:13:34;;;;;;;10.75;10.18;;;;;;;-143.83;100.00;62900.06;5009927;28;20113;-73
2023/01/12 08:16:05;;;;;;;11.52;10.82;;;;;;;-143.83;100.00;62900.06;5011906;28;20026;-69
2023/01/12 08:18:42;;;;;;;10.30;9.80;;;;;;;-143.83;100.00;62900.06;5031161;28;20506;-70
2023/01/12 08:21:11;;;;;;;10.48;9.98;;;;;;;-143.83;100.00;62900.06;5013477;28;20030;-70
2023/01/12 08:23:42;;;;;;;10.80;10.20;;;;;;;-143.83;100.00;62900.06;5015810;28;20022;-70
2023/01/12 08:26:14;;;;;;;11.13;10.52;;;;;;;-143.83;100.00;62900.06;5015368;28;20112;-68
2023/01/12 08:28:46;;;;;;;10.23;9.73;;;;;;;-143.83;100.00;62900.06;5014991;28;20069;-70
2023/01/12 08:31:14;;;;;;;11.95;11.25;;;;;;;-143.83;100.00;62900.06;5015800;28;20379;-71
2023/01/12 08:33:40;;;;;;;11.63;10.93;;;;;;;-143.83;100.00;62900.06;5009478;28;20037;-70
2023/01/12 08:36:09;;;;;;;10.52;9.98;;;;;;;-143.83;100.00;62900.06;5012929;28;20030;-70
2023/01/12 08:38:34;;;;;;;10.20;9.70;;;;;;;-143.83;100.00;62900.06;5012074;28;20022;-71
2023/01/12 08:44:02;;;;;;;9.82;9.35;;;;;;;-143.83;100.00;62900.06;5013918;28;20189;-70
2023/01/12 08:46:47;;;;;;;9.95;9.48;;;;;;;-143.83;100.00;62900.06;5013207;28;20061;-71
2023/01/12 08:49:17;;;;;;;10.15;9.65;;;;;;;-143.83;100.00;62900.06;5027325;28;20033;-70
2023/01/12 08:51:44;;;;;;;10.40;9.88;;;;;;;-143.83;100.00;62900.06;5014547;28;20101;-70
2023/01/12 08:54:11;;;;;;;11.07;10.48;;;;;;;-143.83;100.00;62900.06;5012937;28;20025;-70
2023/01/12 08:56:37;;;;;;;10.23;9.73;;;;;;;-143.83;100.00;62900.06;5014491;28;20382;-70
2023/01/12 08:59:03;;;;;;;9.77;9.27;;;;;;;-143.83;100.00;62900.06;5012892;28;20033;-72
2023/01/12 09:01:29;;;;;;;10.15;9.65;;;;;;;-143.83;100.00;62900.06;5015252;28;20129;-72
2023/01/12 09:03:56;;;;;;;9.93;9.43;;;;;;;-143.83;100.00;62900.06;5015932;28;20441;-71
2023/01/12 09:06:24;;;;;;;10.30;9.80;;;;;;;-143.83;100.00;62900.06;5013852;28;20034;-71
2023/01/12 09:08:58;;;;;;;10.05;9.55;;;;;;;-143.83;100.00;62900.06;5011125;28;20029;-71
2023/01/12 09:11:24;;;;;;;9.82;9.32;;;;;;;-143.83;100.00;62900.06;5013862;28;20040;-72
2023/01/12 09:13:50;;;;;;;9.98;9.48;;;;;;;-143.83;100.00;62900.06;5013972;28;20124;-71
2023/01/12 09:16:17;;;;;;;10.68;10.07;;;;;;;-143.83;100.00;62900.06;5011668;28;20556;-70
2023/01/12 09:18:44;;;;;;;11.48;10.77;;;;;;;-143.83;100.00;62900.06;5010508;28;20022;-71
2023/01/12 09:21:13;;;;;;;11.02;10.43;;;;;;;-143.83;100.00;62900.06;5010387;28;20061;-72
2023/01/12 09:23:40;;;;;;;9.95;9.45;;;;;;;-143.83;100.00;62900.06;5013054;28;20037;-71
2023/01/12 09:26:08;;;;;;;10.35;9.85;;;;;;;-143.83;100.00;62900.06;5011364;28;20025;-70
2023/01/12 09:28:34;;;;;;;9.82;9.32;;;;;;;-143.83;100.00;62900.06;5013295;28;20430;-71
2023/01/12 09:31:27;;;;;;;10.93;10.32;;;;;;;-143.83;100.00;62900.06;5010339;28;20036;-69
2023/01/12 09:33:53;;;;;;;9.90;9.40;;;;;;;-143.83;100.00;62900.06;5011320;28;20444;-68
2023/01/12 09:36:21;;;;;;;9.85;9.35;;;;;;;-143.83;100.00;62900.06;5013443;28;20565;-69
2023/01/12 09:38:48;;;;;;;9.80;9.30;;;;;;;-143.83;100.00;62900.06;5013072;28;20448;-69
2023/01/12 09:46:57;;;;;;;10.77;10.18;;;;;;;-143.83;100.00;62900.06;5013312;28;20065;-70
2023/01/12 09:46:57;;;;;;;10.02;9.52;;;;;;;-143.83;100.00;62900.06;5012463;28;20124;-72
2023/01/12 09:49:34;;;;;;;10.20;9.70;;;;;;;-143.83;100.00;62900.06;5010955;28;20030;-71
2023/01/12 09:52:08;;;;;;;11.10;10.50;;;;;;;-143.83;100.00;62900.06;5012018;28;20029;-71
2023/01/12 09:54:34;;;;;;;10.80;10.20;;;;;;;-143.83;100.00;62900.06;5009099;28;20040;-71
2023/01/12 09:57:33;;;;;;;10.18;9.68;;;;;;;-143.83;100.00;62900.06;5012202;28;20032;-70
2023/01/12 10:00:19;;;;;;;9.70;9.20;;;;;;;-143.83;100.00;62900.06;5010659;28;20064;-72
2023/01/12 10:02:51;;;;;;;10.02;9.52;;;;;;;-143.83;100.00;62900.06;5009985;28;20042;-72
2023/01/12 10:05:53;;;;;;;10.57;9.98;;;;;;;-143.83;100.00;62900.06;5010733;28;20105;-70
2023/01/12 10:08:21;;;;;;;10.05;9.55;;;;;;;-143.83;100.00;62900.06;5007862;28;20559;-70
2023/01/12 10:11:07;;;;;;;10.07;9.57;;;;;;;-143.83;100.00;62900.06;5011515;28;20037;-71
2023/01/12 10:13:51;;;;;;;9.82;9.32;;;;;;;-143.83;100.00;62900.06;5007052;28;20038;-71
2023/01/12 10:16:32;;;;;;;10.50;9.90;;;;;;;-143.83;100.00;62900.06;5011644;28;20087;-70
2023/01/12 10:19:01;;;;;;;9.88;9.38;;;;;;;-143.83;100.00;62900.06;5011896;28;20033;-72
2023/01/12 10:21:29;;;;;;;10.30;9.73;;;;;;;-143.83;100.00;62900.06;5008807;28;20037;-71
2023/01/12 10:23:55;;;;;;;11.18;10.50;;;;;;;-143.83;100.00;62900.06;5011724;28;20394;-70
2023/01/12 10:26:24;;;;;;;10.07;9.57;;;;;;;-143.83;100.00;62900.06;5012798;28;20022;-70
2023/01/12 10:28:53;;;;;;;11.52;10.82;;;;;;;-143.83;100.00;62900.06;5014067;28;20053;-70
2023/01/12 10:31:22;;;;;;;9.68;9.18;;;;;;;-143.83;100.00;62900.06;5014013;28;20067;-72
2023/01/12 10:34:06;;;;;;;9.65;9.15;;;;;;;-143.83;100.00;62900.06;5009988;28;20490;-69
2023/01/12 10:36:42;;;;;;;9.40;8.95;;;;;;;-143.83;100.00;62900.06;5011470;28;20064;-70
2023/01/12 10:39:32;;;;;;;9.57;9.07;;;;;;;-143.83;100.00;62900.06;5007006;28;20037;-69
2023/01/12 10:45:19;;;;;;;10.52;9.93;;;;;;;-143.83;100.00;62900.06;5010194;28;20033;-72
2023/01/12 10:47:45;;;;;;;9.65;9.15;;;;;;;-143.83;100.00;62900.06;5007215;28;20026;-68
2023/01/12 10:50:31;;;;;;;9.45;9.00;;;;;;;-143.83;100.00;62900.06;5006775;28;20172;-68
2023/01/12 10:53:02;;;;;;;9.68;9.18;;;;;;;-143.83;100.00;62900.06;5009369;28;20026;-69
2023/01/12 10:55:31;;;;;;;9.73;9.23;;;;;;;-143.83;100.00;62900.06;5012116;28;20034;-68
2023/01/12 10:57:57;;;;;;;10.48;9.88;;;;;;;-143.83;100.00;62900.06;5010677;28;20047;-68
2023/01/12 11:00:25;;;;;;;9.90;9.40;;;;;;;-143.83;100.00;62900.06;5014298;28;20045;-68
2023/01/12 11:02:51;;;;;;;10.98;10.32;;;;;;;-143.83;100.00;62900.06;5006955;28;20081;-68
2023/01/12 11:05:37;;;;;;;9.98;9.48;;;;;;;-143.83;100.00;62900.06;5010595;28;20030;-68
2023/01/12 11:08:20;;;;;;;10.85;10.25;;;;;;;-143.83;100.00;62900.06;4998498;28;20681;-67
2023/01/12 11:10:45;;;;;;;11.18;10.50;;;;;;;-143.83;100.00;62900.06;5010188;28;20037;-68
2023/01/12 11:13:29;;;;;;;10.90;10.30;;;;;;;-143.83;100.00;62900.06;5010437;28;20022;-69
2023/01/12 11:16:50;;;;;;;9.82;9.32;;;;;;;-143.83;100.00;62900.06;5009609;28;20056;-67
2023/01/12 11:19:21;;;;;;;11.48;10.77;;;;;;;-143.83;100.00;62900.06;4993727;28;20111;-69
2023/01/12 11:22:16;;;;;;;9.98;9.48;;;;;;;-143.83;100.00;62900.06;5003968;28;20021;-72
2023/01/12 11:24:55;;;;;;;9.82;9.32;;;;;;;-143.83;100.00;62900.06;5012046;28;20030;-71
2023/01/12 11:27:28;;;;;;;10.10;9.60;;;;;;;-143.83;100.00;62900.06;5006768;28;20116;-70
2023/01/12 11:29:59;;;;;;;9.73;9.23;;;;;;;-143.83;100.00;62900.06;5010208;28;20453;-69
2023/01/12 11:32:44;;;;;;;10.13;9.63;;;;;;;-143.83;100.00;62900.06;5009482;28;20425;-71
2023/01/12 11:35:34;;;;;;;10.65;10.05;;;;;;;-143.83;100.00;62900.06;5009643;28;20036;-69
2023/01/12 11:38:08;;;;;;;10.32;9.77;;;;;;;-143.83;100.00;62900.06;5010432;28;20112;-67